createdAt,value
2022-12-11T00:00:30.448Z,101203.81
2022-12-11T00:02:58.236Z,101203.81
2022-12-11T00:05:26.026Z,101198.66
2022-12-11T00:07:54.115Z,101196.06
2022-12-11T00:10:21.606Z,101185.72
2022-12-11T00:12:49.152Z,101183.16
2022-12-11T00:15:16.444Z,101183.94
2022-12-11T00:17:46.366Z,101185.53
2022-12-11T00:20:15.111Z,101188.94
2022-12-11T00:22:42.438Z,101191.69
2022-12-11T00:25:10.166Z,101189.09
2022-12-11T00:27:37.848Z,101188.13
2022-12-11T00:30:06.475Z,101181.97
2022-12-11T00:32:37.611Z,101183.69
2022-12-11T00:35:05.550Z,101190.53
2022-12-11T00:37:32.958Z,101190.16
2022-12-11T00:40:00.268Z,101197.56
2022-12-11T00:42:27.730Z,101197.47
2022-12-11T00:44:56.410Z,101193.13
2022-12-11T00:47:24.219Z,101188.03
2022-12-11T00:49:52.907Z,101191.50
2022-12-11T00:52:20.152Z,101199.34
2022-12-11T00:54:47.773Z,101197.75
2022-12-11T00:57:15.141Z,101202.91
2022-12-11T00:59:42.933Z,101198.53
2022-12-11T01:02:10.390Z,101202.63
2022-12-11T01:04:37.728Z,101204.94
2022-12-11T01:07:05.198Z,101209.41
2022-12-11T01:09:51.068Z,101199.88
2022-12-11T01:12:18.309Z,101205.31
2022-12-11T01:14:45.674Z,101212.97
2022-12-11T01:17:12.924Z,101205.94
2022-12-11T01:19:40.209Z,101215.38
2022-12-11T01:22:07.628Z,101211.88
2022-12-11T01:24:34.944Z,101211.28
2022-12-11T01:27:02.550Z,101210.47
2022-12-11T01:29:30.102Z,101217.44
2022-12-11T01:31:57.346Z,101221.16
2022-12-11T01:34:24.638Z,101216.19
2022-12-11T01:36:54.869Z,101221.56
2022-12-11T01:39:22.198Z,101213.88
2022-12-11T01:41:49.530Z,101208.00
2022-12-11T01:44:16.841Z,101213.31
2022-12-11T01:46:44.166Z,101211.72
2022-12-11T01:49:14.082Z,101214.41
2022-12-11T01:51:52.087Z,101216.19
2022-12-11T01:54:23.647Z,101213.72
2022-12-11T01:56:55.790Z,101209.53
2022-12-11T01:59:27.169Z,101201.94
2022-12-11T02:02:04.298Z,101209.78
2022-12-11T02:04:33.160Z,101204.81
2022-12-11T02:07:00.547Z,101190.28
2022-12-11T02:09:33.942Z,101198.22
2022-12-11T02:12:32.401Z,101200.84
2022-12-11T02:15:27.617Z,101205.25
2022-12-11T02:18:05.673Z,101204.25
2022-12-11T02:20:57.841Z,101203.44
2022-12-11T02:23:43.462Z,101202.75
2022-12-11T02:26:38.774Z,101199.44
2022-12-11T02:29:13.472Z,101192.66
2022-12-11T02:31:54.709Z,101186.69
2022-12-11T02:34:37.542Z,101191.22
2022-12-11T02:37:09.730Z,101187.91
2022-12-11T02:39:41.875Z,101175.09
2022-12-11T02:42:11.587Z,101180.34
2022-12-11T02:44:41.185Z,101172.69
2022-12-11T02:47:15.264Z,101170.16
2022-12-11T02:49:47.452Z,101164.28
2022-12-11T02:52:18.774Z,101176.41
2022-12-11T02:54:47.785Z,101162.69
2022-12-11T02:57:33.326Z,101162.78
2022-12-11T03:00:01.148Z,101159.38
2022-12-11T03:02:28.723Z,101157.75
2022-12-11T03:04:58.772Z,101162.03
2022-12-11T03:07:34.153Z,101164.81
2022-12-11T03:10:01.549Z,101164.00
2022-12-11T03:12:38.491Z,101167.50
2022-12-11T03:15:10.852Z,101158.91
2022-12-11T03:18:04.950Z,101159.00
2022-12-11T03:20:38.843Z,101159.88
2022-12-11T03:23:22.775Z,101160.75
2022-12-11T03:26:13.891Z,101153.19
2022-12-11T03:29:02.656Z,101155.84
2022-12-11T03:31:38.035Z,101151.56
2022-12-11T03:34:16.591Z,101151.56
2022-12-11T03:36:48.028Z,101155.03
2022-12-11T03:39:45.885Z,101155.84
2022-12-11T03:42:16.042Z,101153.38
2022-12-11T03:44:49.666Z,101153.38
2022-12-11T03:47:24.288Z,101161.19
2022-12-11T03:49:56.301Z,101152.63
2022-12-11T03:52:26.402Z,101144.97
2022-12-11T03:54:58.142Z,101146.72
2022-12-11T03:57:31.176Z,101132.91
2022-12-11T03:59:58.924Z,101142.53
2022-12-11T04:02:26.248Z,101139.16
2022-12-11T04:04:54.184Z,101139.16
2022-12-11T04:07:21.988Z,101138.34
2022-12-11T04:09:50.573Z,101134.94
2022-12-11T04:12:18.074Z,101136.66
2022-12-11T04:15:03.582Z,101150.47
2022-12-11T04:17:58.196Z,101145.38
2022-12-11T04:20:44.048Z,101151.34
2022-12-11T04:23:33.254Z,101144.41
2022-12-11T04:26:09.990Z,101140.13
2022-12-11T04:28:38.500Z,101141.91
2022-12-11T04:31:06.393Z,101136.78
2022-12-11T04:33:34.772Z,101135.13
2022-12-11T04:36:02.502Z,101131.72
2022-12-11T04:38:30.120Z,101139.47
2022-12-11T04:41:09.091Z,101136.09
2022-12-11T04:43:36.835Z,101134.38
2022-12-11T04:46:05.720Z,101131.88
2022-12-11T04:48:33.502Z,101131.06
2022-12-11T04:51:01.545Z,101128.56
2022-12-11T04:53:30.074Z,101127.78
2022-12-11T04:55:57.815Z,101120.09
2022-12-11T04:58:26.703Z,101117.56
2022-12-11T05:00:55.647Z,101118.56
2022-12-11T05:03:23.086Z,101119.53
2022-12-11T05:05:53.303Z,101118.63
2022-12-11T05:08:30.104Z,101122.13
2022-12-11T05:11:00.616Z,101120.41
2022-12-11T05:13:29.300Z,101126.56
2022-12-11T05:15:57.358Z,101130.94
2022-12-11T05:18:25.154Z,101125.81
2022-12-11T05:21:05.737Z,101127.63
2022-12-11T05:23:34.062Z,101125.81
2022-12-11T05:26:04.266Z,101119.75
2022-12-11T05:28:35.147Z,101123.22
2022-12-11T05:31:04.822Z,101112.81
2022-12-11T05:33:32.402Z,101126.47
2022-12-11T05:36:00.463Z,101124.75
2022-12-11T05:38:27.905Z,101126.47
2022-12-11T05:41:00.278Z,101128.25
2022-12-11T05:43:30.243Z,101123.78
2022-12-11T05:46:09.212Z,101118.47
2022-12-11T05:48:40.195Z,101124.53
2022-12-11T05:51:08.696Z,101125.41
2022-12-11T05:53:38.262Z,101123.75
2022-12-11T05:56:08.892Z,101123.78
2022-12-11T05:58:36.205Z,101118.72
2022-12-11T06:01:07.967Z,101118.88
2022-12-11T06:03:37.058Z,101123.31
2022-12-11T06:06:05.445Z,101124.28
2022-12-11T06:08:34.070Z,101125.25
2022-12-11T06:11:01.953Z,101121.00
2022-12-11T06:13:30.354Z,101110.69
2022-12-11T06:16:07.016Z,101108.09
2022-12-11T06:18:39.870Z,101115.16
2022-12-11T06:21:14.669Z,101120.44
2022-12-11T06:23:43.669Z,101111.84
2022-12-11T06:26:11.706Z,101111.94
2022-12-11T06:28:40.067Z,101119.59
2022-12-11T06:31:08.212Z,101109.34
2022-12-11T06:33:35.576Z,101114.44
2022-12-11T06:36:05.551Z,101109.34
2022-12-11T06:38:32.978Z,101113.69
2022-12-11T06:41:05.177Z,101108.50
2022-12-11T06:43:33.648Z,101115.41
2022-12-11T06:46:08.121Z,101114.50
2022-12-11T06:48:35.989Z,101113.53
2022-12-11T06:51:08.260Z,101108.47
2022-12-11T06:53:37.083Z,101109.41
2022-12-11T06:56:14.034Z,101115.47
2022-12-11T06:58:43.197Z,101118.06
2022-12-11T07:01:19.845Z,101121.53
2022-12-11T07:03:49.269Z,101122.44
2022-12-11T07:06:19.725Z,101114.69
2022-12-11T07:08:47.106Z,101116.28
2022-12-11T07:11:17.002Z,101121.44
2022-12-11T07:13:44.687Z,101123.16
2022-12-11T07:16:13.956Z,101130.13
2022-12-11T07:18:44.343Z,101125.75
2022-12-11T07:21:13.572Z,101131.81
2022-12-11T07:23:43.483Z,101137.06
2022-12-11T07:26:14.072Z,101126.63
2022-12-11T07:28:42.794Z,101135.31
2022-12-11T07:31:19.272Z,101126.56
2022-12-11T07:33:58.665Z,101136.00
2022-12-11T07:36:27.625Z,101128.19
2022-12-11T07:38:58.477Z,101125.66
2022-12-11T07:41:27.835Z,101124.78
2022-12-11T07:43:56.554Z,101124.00
2022-12-11T07:46:26.989Z,101126.50
2022-12-11T07:48:55.518Z,101124.00
2022-12-11T07:51:28.253Z,101118.72
2022-12-11T07:54:00.434Z,101121.22
2022-12-11T07:56:30.157Z,101132.47
2022-12-11T07:59:05.937Z,101131.66
2022-12-11T08:01:36.470Z,101141.19
2022-12-11T08:04:05.990Z,101130.94
2022-12-11T08:06:40.240Z,101142.25
2022-12-11T08:09:09.855Z,101140.47
2022-12-11T08:11:38.473Z,101145.66
2022-12-11T08:14:06.756Z,101135.31
2022-12-11T08:16:34.025Z,101142.16
2022-12-11T08:19:01.277Z,101137.06
2022-12-11T08:21:29.287Z,101135.41
2022-12-11T08:23:56.679Z,101140.47
2022-12-11T08:26:29.247Z,101139.56
2022-12-11T08:28:57.371Z,101143.06
2022-12-11T08:31:25.417Z,101137.97
2022-12-11T08:33:52.932Z,101141.53
2022-12-11T08:36:22.946Z,101139.84
2022-12-11T08:38:51.951Z,101145.97
2022-12-11T08:41:30.196Z,101139.09
2022-12-11T08:44:00.330Z,101136.59
2022-12-11T08:46:30.440Z,101141.84
2022-12-11T08:48:58.472Z,101142.72
2022-12-11T08:51:27.291Z,101144.66
2022-12-11T08:54:00.257Z,101149.13
2022-12-11T08:56:28.744Z,101145.72
2022-12-11T08:58:56.147Z,101144.94
2022-12-11T09:01:25.745Z,101144.94
2022-12-11T09:03:55.480Z,101143.22
2022-12-11T09:06:25.155Z,101137.25
2022-12-11T09:08:54.136Z,101145.97
2022-12-11T09:11:27.399Z,101148.56
2022-12-11T09:13:56.368Z,101145.16
2022-12-11T09:16:25.715Z,101140.94
2022-12-11T09:18:56.111Z,101143.63
2022-12-11T09:21:26.775Z,101142.00
2022-12-11T09:24:00.224Z,101146.38
2022-12-11T09:26:28.879Z,101140.28
2022-12-11T09:28:56.648Z,101142.00
2022-12-11T09:31:30.203Z,101138.53
2022-12-11T09:34:00.079Z,101137.69
2022-12-11T09:36:28.570Z,101138.69
2022-12-11T09:38:59.744Z,101139.56
2022-12-11T09:41:32.644Z,101130.00
2022-12-11T09:44:11.197Z,101131.94
2022-12-11T09:46:40.852Z,101132.03
2022-12-11T09:49:32.290Z,101130.41
2022-12-11T09:52:04.294Z,101122.63
2022-12-11T09:54:32.442Z,101115.78
2022-12-11T09:57:20.350Z,101112.34
2022-12-11T10:00:15.399Z,101105.53
2022-12-11T10:03:09.483Z,101108.22
2022-12-11T10:05:48.584Z,101104.84
2022-12-11T10:08:28.068Z,101104.84
2022-12-11T10:11:21.972Z,101115.19
2022-12-11T10:13:58.566Z,101109.19
2022-12-11T10:17:09.115Z,101120.50
2022-12-11T10:19:36.539Z,101107.56
2022-12-11T10:22:04.184Z,101107.56
2022-12-11T10:27:33.879Z,101110.22
2022-12-11T10:30:14.632Z,101107.66
2022-12-11T10:32:44.817Z,101115.41
2022-12-11T10:35:20.300Z,101104.25
2022-12-11T10:37:47.584Z,101098.31
2022-12-11T10:40:15.047Z,101098.41
2022-12-11T10:42:55.967Z,101089.81
2022-12-11T10:45:23.202Z,101080.41
2022-12-11T10:47:50.512Z,101090.84
2022-12-11T10:50:26.324Z,101082.38
2022-12-11T10:52:53.808Z,101078.06
2022-12-11T10:55:25.023Z,101082.38
2022-12-11T10:58:03.661Z,101078.94
2022-12-11T11:00:41.976Z,101081.63
2022-12-11T11:03:28.016Z,101083.38
2022-12-11T11:06:22.470Z,101078.34
2022-12-11T11:08:53.520Z,101076.59
2022-12-11T11:11:36.928Z,101079.22
2022-12-11T11:14:16.990Z,101080.16
2022-12-11T11:16:50.470Z,101082.06
2022-12-11T11:19:29.322Z,101075.19
2022-12-11T11:21:59.759Z,101074.44
2022-12-11T11:24:29.035Z,101069.25
2022-12-11T11:27:13.213Z,101074.50
2022-12-11T11:29:47.744Z,101080.59
2022-12-11T11:32:39.786Z,101078.81
2022-12-11T11:35:13.523Z,101066.81
2022-12-11T11:37:46.961Z,101078.00
2022-12-11T11:40:17.154Z,101079.59
2022-12-11T11:43:09.216Z,101079.59
2022-12-11T11:45:39.628Z,101078.66
2022-12-11T11:48:20.762Z,101077.75
2022-12-11T11:50:50.653Z,101071.84
2022-12-11T11:53:43.900Z,101071.13
2022-12-11T11:56:21.949Z,101069.25
2022-12-11T11:59:19.130Z,101062.47
2022-12-11T12:01:47.578Z,101071.03
2022-12-11T12:04:15.138Z,101066.66
2022-12-11T12:06:58.261Z,101067.66
2022-12-11T12:09:25.571Z,101067.66
2022-12-11T12:12:26.603Z,101075.41
2022-12-11T12:15:20.852Z,101070.22
2022-12-11T12:17:56.490Z,101071.13
2022-12-11T12:20:39.085Z,101059.91
2022-12-11T12:23:42.877Z,101065.19
2022-12-11T12:26:33.270Z,101064.38
2022-12-11T12:29:21.416Z,101066.06
2022-12-11T12:32:00.964Z,101058.38
2022-12-11T12:34:31.164Z,101062.66
2022-12-11T12:37:04.473Z,101063.47
2022-12-11T12:39:50.625Z,101069.56
2022-12-11T12:42:30.107Z,101058.38
2022-12-11T12:45:14.240Z,101059.28
2022-12-11T12:47:48.867Z,101063.63
2022-12-11T12:50:23.814Z,101059.31
2022-12-11T12:52:55.354Z,101059.41
2022-12-11T12:55:25.945Z,101059.56
2022-12-11T12:58:01.603Z,101057.84
2022-12-11T13:00:41.753Z,101058.72
2022-12-11T13:03:21.949Z,101056.97
2022-12-11T13:06:00.502Z,101055.25
2022-12-11T13:08:31.264Z,101055.19
2022-12-11T13:11:00.924Z,101062.94
2022-12-11T13:13:51.555Z,101063.03
2022-12-11T13:16:34.698Z,101067.41
2022-12-11T13:19:02.164Z,101063.03
2022-12-11T13:21:36.348Z,101058.72
2022-12-11T13:24:22.147Z,101057.06
2022-12-11T13:26:51.095Z,101069.19
2022-12-11T13:29:42.579Z,101074.38
2022-12-11T13:32:09.795Z,101063.13
2022-12-11T13:34:43.227Z,101068.31
2022-12-11T13:37:41.282Z,101075.03
2022-12-11T13:40:18.961Z,101082.81
2022-12-11T13:43:03.138Z,101068.22
2022-12-11T13:45:38.988Z,101071.78
2022-12-11T13:48:20.568Z,101070.22
2022-12-11T13:50:49.780Z,101066.00
2022-12-11T13:53:21.048Z,101062.59
2022-12-11T13:56:00.977Z,101070.41
2022-12-11T13:58:28.973Z,101071.34
2022-12-11T14:01:11.476Z,101071.25
2022-12-11T14:03:59.037Z,101078.16
2022-12-11T14:06:28.825Z,101081.53
2022-12-11T14:09:00.696Z,101082.38
2022-12-11T14:11:42.603Z,101078.06
2022-12-11T14:14:21.929Z,101083.09
2022-12-11T14:16:51.592Z,101080.50
2022-12-11T14:19:21.570Z,101069.34
2022-12-11T14:22:04.237Z,101071.09
2022-12-11T14:24:32.086Z,101076.28
2022-12-11T14:27:00.247Z,101081.47
2022-12-11T14:29:34.338Z,101082.31
2022-12-11T14:32:05.122Z,101077.84
2022-12-11T14:34:37.041Z,101088.19
2022-12-11T14:37:08.321Z,101086.44
2022-12-11T14:40:07.225Z,101087.19
2022-12-11T14:43:00.313Z,101083.56
2022-12-11T14:45:36.359Z,101092.13
2022-12-11T14:48:12.207Z,101087.72
2022-12-11T14:50:44.049Z,101084.19
2022-12-11T14:53:17.564Z,101086.75
2022-12-11T14:55:48.991Z,101092.72
2022-12-11T14:58:22.630Z,101099.53
2022-12-11T15:01:06.784Z,101090.81
2022-12-11T15:03:37.459Z,101087.25
2022-12-11T15:06:23.683Z,101085.47
2022-12-11T15:08:51.134Z,101082.94
2022-12-11T15:11:19.154Z,101095.09
2022-12-11T15:13:58.815Z,101093.31
2022-12-11T15:16:29.489Z,101093.22
2022-12-11T15:18:58.828Z,101101.00
2022-12-11T15:21:32.296Z,101095.03
2022-12-11T15:24:05.582Z,101099.34
2022-12-11T15:26:44.531Z,101092.34
2022-12-11T15:29:30.634Z,101101.84
2022-12-11T15:32:03.901Z,101095.69
2022-12-11T15:34:46.029Z,101097.47
2022-12-11T15:37:33.537Z,101098.28
2022-12-11T15:40:02.876Z,101094.78
2022-12-11T15:42:41.946Z,101095.63
2022-12-11T15:45:16.718Z,101085.16
2022-12-11T15:47:45.317Z,101086.03
2022-12-11T15:50:21.725Z,101090.34
2022-12-11T15:52:50.686Z,101086.78
2022-12-11T15:55:19.429Z,101086.78
2022-12-11T15:58:00.026Z,101090.28
2022-12-11T16:00:28.392Z,101090.34
2022-12-11T16:02:57.263Z,101086.97
2022-12-11T16:05:26.000Z,101094.72
2022-12-11T16:07:55.244Z,101099.09
2022-12-11T16:10:22.583Z,101098.22
2022-12-11T16:12:50.379Z,101099.97
2022-12-11T16:15:23.547Z,101100.78
2022-12-11T16:17:59.646Z,101096.50
2022-12-11T16:20:26.945Z,101097.31
2022-12-11T16:22:55.301Z,101095.53
2022-12-11T16:25:22.813Z,101100.72
2022-12-11T16:27:50.666Z,101094.66
2022-12-11T16:30:18.027Z,101101.50
2022-12-11T16:32:45.658Z,101096.34
2022-12-11T16:35:13.452Z,101093.75
2022-12-11T16:37:41.676Z,101092.84
2022-12-11T16:40:09.769Z,101098.91
2022-12-11T16:42:38.372Z,101098.03
2022-12-11T16:45:09.253Z,101091.09
2022-12-11T16:47:36.743Z,101098.03
2022-12-11T16:50:05.350Z,101096.28
2022-12-11T16:52:33.457Z,101085.84
2022-12-11T16:55:00.925Z,101095.31
2022-12-11T16:57:28.380Z,101089.22
2022-12-11T16:59:55.879Z,101087.47
2022-12-11T17:02:23.559Z,101094.34
2022-12-11T17:04:54.040Z,101098.63
2022-12-11T17:07:21.472Z,101089.19
2022-12-11T17:09:48.622Z,101099.47
2022-12-11T17:12:16.386Z,101102.84
2022-12-11T17:14:43.854Z,101102.03
2022-12-11T17:17:11.334Z,101102.75
2022-12-11T17:19:38.639Z,101101.09
2022-12-11T17:22:05.888Z,101102.75
2022-12-11T17:24:33.627Z,101107.91
2022-12-11T17:27:01.172Z,101109.66
2022-12-11T17:29:31.235Z,101103.59
2022-12-11T17:31:58.805Z,101109.66
2022-12-11T17:34:26.302Z,101105.31
2022-12-11T17:36:55.929Z,101115.66
2022-12-11T17:39:23.182Z,101113.06
2022-12-11T17:41:50.444Z,101104.38
2022-12-11T17:44:17.690Z,101108.69
2022-12-11T17:46:45.356Z,101111.38
2022-12-11T17:49:13.185Z,101112.25
2022-12-11T17:51:40.386Z,101109.56
2022-12-11T17:54:07.729Z,101116.53
2022-12-11T17:56:36.210Z,101108.69
2022-12-11T17:59:03.989Z,101110.53
2022-12-11T18:01:31.481Z,101099.28
2022-12-11T18:04:01.503Z,101101.09
2022-12-11T18:06:29.851Z,101107.06
2022-12-11T18:08:58.174Z,101117.50
2022-12-11T18:11:25.542Z,101115.81
2022-12-11T18:13:55.930Z,101114.16
2022-12-11T18:16:29.665Z,101099.47
2022-12-11T18:18:57.455Z,101111.50
2022-12-11T18:21:30.522Z,101108.09
2022-12-11T18:23:58.322Z,101107.94
2022-12-11T18:26:25.946Z,101112.25
2022-12-11T18:28:55.402Z,101116.63
2022-12-11T18:31:23.676Z,101116.53
2022-12-11T18:33:52.130Z,101114.84
2022-12-11T18:36:20.829Z,101115.66
2022-12-11T18:38:48.731Z,101106.19
2022-12-11T18:41:17.923Z,101118.25
2022-12-11T18:43:45.690Z,101117.34
2022-12-11T18:46:16.576Z,101116.47
2022-12-11T18:48:44.807Z,101120.84
2022-12-11T18:51:17.326Z,101114.75
2022-12-11T18:53:45.584Z,101119.06
2022-12-11T18:56:15.819Z,101120.84
2022-12-11T18:58:43.044Z,101111.38
2022-12-11T19:01:20.196Z,101115.66
2022-12-11T19:03:48.483Z,101116.53
2022-12-11T19:09:06.266Z,101121.66
2022-12-11T19:11:34.970Z,101119.06
2022-12-11T19:14:04.388Z,101118.19
2022-12-11T19:16:41.478Z,101114.66
2022-12-11T19:19:16.677Z,101115.50
2022-12-11T19:21:44.650Z,101121.47
2022-12-11T19:24:15.241Z,101117.22
2022-12-11T19:26:43.928Z,101113.69
2022-12-11T19:29:20.116Z,101118.09
2022-12-11T19:31:47.963Z,101117.03
2022-12-11T19:34:15.748Z,101113.47
2022-12-11T19:36:43.574Z,101120.44
2022-12-11T19:39:13.198Z,101122.13
2022-12-11T19:41:43.852Z,101129.13
2022-12-11T19:44:12.032Z,101123.94
2022-12-11T19:46:39.352Z,101135.00
2022-12-11T19:49:06.753Z,101129.81
2022-12-11T19:51:39.353Z,101134.13
2022-12-11T19:54:08.663Z,101132.41
2022-12-11T19:56:36.529Z,101128.16
2022-12-11T19:59:06.840Z,101118.59
2022-12-11T20:01:36.419Z,101121.25
2022-12-11T20:04:07.221Z,101130.75
2022-12-11T20:06:37.576Z,101125.47
2022-12-11T20:09:07.604Z,101126.34
2022-12-11T20:11:34.842Z,101129.03
2022-12-11T20:14:02.130Z,101134.22
2022-12-11T20:16:53.777Z,101132.38
2022-12-11T20:19:17.216Z,101135.75
2022-12-11T20:21:44.578Z,101132.28
2022-12-11T20:24:13.166Z,101134.88
2022-12-11T20:26:40.506Z,101139.13
2022-12-11T20:29:08.410Z,101133.91
2022-12-11T20:31:36.930Z,101137.38
2022-12-11T20:34:04.819Z,101133.06
2022-12-11T20:36:33.009Z,101133.00
2022-12-11T20:39:00.667Z,101140.75
2022-12-11T20:41:28.172Z,101143.34
2022-12-11T20:43:55.683Z,101140.75
2022-12-11T20:46:27.204Z,101150.31
2022-12-11T20:48:58.766Z,101148.63
2022-12-11T20:51:27.032Z,101144.31
2022-12-11T20:53:59.246Z,101146.03
2022-12-11T20:56:29.723Z,101147.75
2022-12-11T20:58:59.374Z,101149.50
2022-12-11T21:01:34.868Z,101151.22
2022-12-11T21:04:02.861Z,101137.38
2022-12-11T21:06:33.343Z,101142.63
2022-12-11T21:09:05.549Z,101140.84
2022-12-11T21:11:32.946Z,101146.03
2022-12-11T21:14:00.250Z,101149.50
2022-12-11T21:16:27.731Z,101146.91
2022-12-11T21:18:59.245Z,101149.50
2022-12-11T21:21:26.869Z,101153.78
2022-12-11T21:23:55.379Z,101149.50
2022-12-11T21:26:22.753Z,101154.75
2022-12-11T21:28:50.781Z,101151.28
2022-12-11T21:31:20.165Z,101160.78
2022-12-11T21:33:48.057Z,101153.78
2022-12-11T21:36:16.531Z,101155.59
2022-12-11T21:38:45.461Z,101153.88
2022-12-11T21:41:19.168Z,101151.28
2022-12-11T21:46:39.528Z,101152.03
2022-12-11T21:49:08.560Z,101145.94
2022-12-11T21:51:42.684Z,101164.91
2022-12-11T21:54:16.955Z,101156.31
2022-12-11T21:56:45.631Z,101163.28
2022-12-11T21:59:16.169Z,101162.41
2022-12-11T22:01:46.259Z,101161.47
2022-12-11T22:04:16.936Z,101157.94
2022-12-11T22:06:47.342Z,101159.72
2022-12-11T22:09:18.653Z,101164.91
2022-12-11T22:11:47.006Z,101157.13
2022-12-11T22:14:18.097Z,101158.00
2022-12-11T22:16:46.713Z,101162.31
2022-12-11T22:19:14.276Z,101158.84
2022-12-11T22:21:42.856Z,101160.44
2022-12-11T22:24:11.436Z,101163.94
2022-12-11T22:26:39.315Z,101170.88
2022-12-11T22:29:07.006Z,101163.94
2022-12-11T22:31:34.405Z,101173.47
2022-12-11T22:34:02.599Z,101167.41
2022-12-11T22:36:30.211Z,101163.09
2022-12-11T22:39:00.180Z,101170.00
2022-12-11T22:41:32.944Z,101167.41
2022-12-11T22:44:00.645Z,101167.41
2022-12-11T22:46:29.951Z,101159.63
2022-12-11T22:48:59.212Z,101164.81
2022-12-11T22:51:26.729Z,101160.50
2022-12-11T22:54:00.413Z,101164.72
2022-12-11T22:56:27.831Z,101169.91
2022-12-11T22:58:57.681Z,101170.75
2022-12-11T23:01:26.676Z,101166.53
2022-12-11T23:03:54.748Z,101167.31
2022-12-11T23:06:25.048Z,101167.31
2022-12-11T23:08:55.774Z,101167.31
2022-12-11T23:11:30.397Z,101174.28
2022-12-11T23:13:58.032Z,101169.13
2022-12-11T23:16:27.105Z,101177.75
2022-12-11T23:18:57.558Z,101177.84
2022-12-11T23:21:27.682Z,101177.03
2022-12-11T23:23:57.578Z,101173.47
2022-12-11T23:26:27.364Z,101170.00
2022-12-11T23:28:57.014Z,101170.78
2022-12-11T23:31:26.587Z,101171.69
2022-12-11T23:33:57.669Z,101169.13
2022-12-11T23:36:26.541Z,101163.84
2022-12-11T23:38:55.231Z,101169.03
2022-12-11T23:41:23.634Z,101167.19
2022-12-11T23:43:51.232Z,101173.25
2022-12-11T23:46:21.813Z,101178.34
2022-12-11T23:48:49.988Z,101175.75
2022-12-11T23:51:19.268Z,101176.63
2022-12-11T23:53:50.653Z,101182.63
2022-12-11T23:56:24.518Z,101176.53
2022-12-11T23:58:52.522Z,101180.13
